createdAt,value
2022-12-31T00:04:28.309Z,4.47
2022-12-31T00:09:29.731Z,3.90
2022-12-31T00:14:31.480Z,3.17
2022-12-31T00:19:32.963Z,3.95
2022-12-31T00:24:35.798Z,3.15
2022-12-31T00:29:37.315Z,2.97
2022-12-31T00:34:38.804Z,3.65
2022-12-31T00:39:40.290Z,2.58
2022-12-31T00:44:41.726Z,2.95
2022-12-31T00:49:43.258Z,3.28
2022-12-31T00:54:44.871Z,2.75
2022-12-31T00:59:46.501Z,3.55
2022-12-31T01:04:48.032Z,3.40
2022-12-31T01:09:49.532Z,2.42
2022-12-31T01:14:50.973Z,2.85
2022-12-31T01:19:52.738Z,2.85
2022-12-31T01:24:54.172Z,3.05
2022-12-31T01:29:55.607Z,2.42
2022-12-31T01:34:57.079Z,2.83
2022-12-31T01:39:58.487Z,2.42
2022-12-31T01:45:00.024Z,2.10
2022-12-31T01:50:11.624Z,2.30
2022-12-31T01:55:23.629Z,2.38
2022-12-31T02:00:25.137Z,2.85
2022-12-31T02:05:32.961Z,2.75
2022-12-31T02:10:34.682Z,2.22
2022-12-31T02:15:39.259Z,2.42
2022-12-31T02:26:24.784Z,2.60
2022-12-31T02:31:33.168Z,2.50
2022-12-31T02:36:42.418Z,3.05
2022-12-31T02:41:51.096Z,2.78
2022-12-31T02:47:07.751Z,1.63
2022-12-31T02:52:26.551Z,2.35
2022-12-31T02:57:42.319Z,2.63
2022-12-31T03:02:45.950Z,2.28
2022-12-31T03:07:48.130Z,2.43
2022-12-31T03:12:51.121Z,2.03
2022-12-31T03:18:14.143Z,3.30
2022-12-31T03:23:20.539Z,2.70
2022-12-31T03:28:24.797Z,2.60
2022-12-31T03:33:29.737Z,2.35
2022-12-31T03:38:31.230Z,2.10
2022-12-31T03:43:32.730Z,1.95
2022-12-31T03:48:34.312Z,3.13
2022-12-31T03:53:35.808Z,2.10
2022-12-31T03:58:37.291Z,1.60
2022-12-31T04:03:38.762Z,2.10
2022-12-31T04:08:40.187Z,2.40
2022-12-31T04:13:41.611Z,2.17
2022-12-31T04:18:43.063Z,2.17
2022-12-31T04:23:44.584Z,1.70
2022-12-31T04:28:46.417Z,2.00
2022-12-31T04:33:47.861Z,1.90
2022-12-31T04:38:49.324Z,1.65
2022-12-31T04:43:53.284Z,2.08
2022-12-31T04:48:55.318Z,1.10
2022-12-31T04:53:57.620Z,2.38
2022-12-31T04:58:59.084Z,3.45
2022-12-31T05:04:00.581Z,3.65
2022-12-31T05:09:02.230Z,4.30
2022-12-31T05:14:03.734Z,5.07
2022-12-31T05:19:06.318Z,6.15
2022-12-31T05:24:08.203Z,6.60
2022-12-31T05:29:09.621Z,7.20
2022-12-31T05:34:11.032Z,7.60
2022-12-31T05:39:12.508Z,7.68
2022-12-31T05:44:14.193Z,8.65
2022-12-31T05:49:15.813Z,8.27
2022-12-31T05:54:17.322Z,7.20
2022-12-31T05:59:18.983Z,7.78
2022-12-31T06:04:20.655Z,8.30
2022-12-31T06:09:22.225Z,8.23
2022-12-31T06:14:24.793Z,7.82
2022-12-31T06:19:26.407Z,7.88
2022-12-31T06:24:27.947Z,7.72
2022-12-31T06:29:29.683Z,7.07
2022-12-31T06:34:31.368Z,6.80
2022-12-31T06:39:32.844Z,6.63
2022-12-31T06:44:34.360Z,6.28
2022-12-31T06:49:35.801Z,6.80
2022-12-31T06:54:37.585Z,5.95
2022-12-31T06:59:39.255Z,6.07
2022-12-31T07:04:52.812Z,7.03
2022-12-31T07:10:10.982Z,7.10
2022-12-31T07:15:45.689Z,7.32
2022-12-31T07:20:47.447Z,7.68
2022-12-31T07:26:01.455Z,7.47
2022-12-31T07:31:11.734Z,6.95
2022-12-31T07:36:44.517Z,6.72
2022-12-31T07:42:18.221Z,7.00
2022-12-31T07:47:22.838Z,8.20
2022-12-31T07:57:35.619Z,9.68
2022-12-31T08:03:02.792Z,8.73
2022-12-31T08:08:29.301Z,8.63
2022-12-31T08:13:31.486Z,7.53
2022-12-31T08:18:33.419Z,7.43
2022-12-31T08:23:47.269Z,6.30
2022-12-31T08:29:25.024Z,6.97
2022-12-31T08:34:40.393Z,6.18
2022-12-31T08:40:09.432Z,5.20
2022-12-31T08:45:13.914Z,5.20
2022-12-31T08:55:19.366Z,4.93
2022-12-31T09:00:21.736Z,5.20
2022-12-31T09:05:26.327Z,4.10
2022-12-31T09:15:48.511Z,4.25
2022-12-31T09:20:50.294Z,4.85
2022-12-31T09:26:15.973Z,5.30
2022-12-31T09:31:27.964Z,5.57
2022-12-31T09:36:38.702Z,4.65
2022-12-31T09:41:52.303Z,4.15
2022-12-31T09:47:12.459Z,4.85
2022-12-31T09:52:30.275Z,3.92
2022-12-31T09:57:40.041Z,4.07
2022-12-31T10:02:41.577Z,3.88
2022-12-31T10:07:53.520Z,3.00
2022-12-31T10:13:01.189Z,2.13
2022-12-31T10:18:31.303Z,1.83
2022-12-31T10:23:52.452Z,1.85
2022-12-31T10:29:09.725Z,2.30
2022-12-31T10:34:43.974Z,3.22
2022-12-31T10:40:07.065Z,4.20
2022-12-31T10:45:23.517Z,4.65
2022-12-31T10:51:02.857Z,4.20
2022-12-31T10:56:43.163Z,3.17
2022-12-31T11:02:09.153Z,2.55
2022-12-31T11:07:22.702Z,2.15
2022-12-31T11:17:38.513Z,2.22
2022-12-31T11:23:15.379Z,2.75
2022-12-31T11:28:32.893Z,1.88
2022-12-31T11:33:52.772Z,1.60
2022-12-31T11:39:16.321Z,2.40
2022-12-31T11:44:44.490Z,1.52
2022-12-31T11:49:52.045Z,1.83
2022-12-31T11:55:30.971Z,1.30
2022-12-31T12:00:33.005Z,1.73
2022-12-31T12:05:35.428Z,1.95
2022-12-31T12:10:44.334Z,3.28
2022-12-31T12:15:49.692Z,3.28
2022-12-31T12:20:51.216Z,3.35
2022-12-31T12:25:52.995Z,3.75
2022-12-31T12:31:04.939Z,3.13
2022-12-31T12:36:12.227Z,3.58
2022-12-31T12:41:26.265Z,3.10
2022-12-31T12:46:32.890Z,2.13
2022-12-31T12:51:51.029Z,2.45
2022-12-31T12:57:04.750Z,1.50
2022-12-31T13:02:18.718Z,2.08
2022-12-31T13:07:40.881Z,1.48
2022-12-31T13:13:25.179Z,1.08
2022-12-31T13:18:46.138Z,2.10
2022-12-31T13:23:58.726Z,2.60
2022-12-31T13:29:02.636Z,1.60
2022-12-31T13:34:21.902Z,1.40
2022-12-31T13:39:36.249Z,1.20
2022-12-31T13:44:54.932Z,2.08
2022-12-31T13:50:12.531Z,1.60
2022-12-31T13:55:22.791Z,1.40
2022-12-31T14:00:29.939Z,1.30
2022-12-31T14:05:41.716Z,1.27
2022-12-31T14:11:05.057Z,1.38
2022-12-31T14:16:28.550Z,2.53
2022-12-31T14:21:37.336Z,1.40
2022-12-31T14:26:43.595Z,1.30
2022-12-31T14:32:15.990Z,2.00
2022-12-31T14:37:30.629Z,2.05
2022-12-31T14:42:45.635Z,1.65
2022-12-31T14:47:52.234Z,1.77
2022-12-31T14:52:59.934Z,2.15
2022-12-31T15:08:51.540Z,1.83
2022-12-31T15:14:14.705Z,1.23
2022-12-31T15:19:18.846Z,2.50
2022-12-31T15:24:24.075Z,1.25
2022-12-31T15:29:33.201Z,2.05
2022-12-31T15:34:36.686Z,2.47
2022-12-31T15:39:41.682Z,2.50
2022-12-31T15:44:54.775Z,3.00
2022-12-31T15:50:00.457Z,2.95
2022-12-31T15:55:05.459Z,1.80
2022-12-31T16:00:17.042Z,1.88
2022-12-31T16:05:22.050Z,1.83
2022-12-31T16:10:31.831Z,1.77
2022-12-31T16:15:34.241Z,3.42
2022-12-31T16:20:41.853Z,3.22
2022-12-31T16:25:44.993Z,4.07
2022-12-31T16:30:58.841Z,3.42
2022-12-31T16:36:01.707Z,3.58
2022-12-31T16:41:03.118Z,3.47
2022-12-31T16:46:27.014Z,4.40
2022-12-31T16:56:36.398Z,3.75
2022-12-31T17:01:38.678Z,3.47
2022-12-31T17:06:40.525Z,4.57
2022-12-31T17:12:08.031Z,5.20
2022-12-31T17:17:22.904Z,4.63
2022-12-31T17:22:35.875Z,5.70
2022-12-31T17:27:38.433Z,3.53
2022-12-31T17:32:40.532Z,6.10
2022-12-31T17:37:42.097Z,5.32
2022-12-31T17:42:43.586Z,3.97
2022-12-31T17:47:48.115Z,4.10
2022-12-31T17:57:54.263Z,4.53
2022-12-31T18:02:55.889Z,6.00
2022-12-31T18:07:57.438Z,5.15
2022-12-31T18:12:59.137Z,7.90
2022-12-31T18:18:00.605Z,6.47
2022-12-31T18:23:02.029Z,5.85
2022-12-31T18:28:09.411Z,4.57
2022-12-31T18:33:12.520Z,3.80
2022-12-31T18:38:16.575Z,5.05
2022-12-31T18:43:19.236Z,4.72
2022-12-31T18:48:20.897Z,2.60
2022-12-31T18:53:23.804Z,5.07
2022-12-31T18:58:25.285Z,7.70
2022-12-31T19:03:28.034Z,4.80
2022-12-31T19:08:29.651Z,3.05
2022-12-31T19:13:31.126Z,4.32
2022-12-31T19:18:32.623Z,2.67
2022-12-31T19:23:34.049Z,6.85
2022-12-31T19:28:35.579Z,11.40
2022-12-31T19:33:37.230Z,18.75
2022-12-31T19:38:38.724Z,3.28
2022-12-31T19:43:40.161Z,3.47
2022-12-31T19:48:41.715Z,7.20
2022-12-31T19:53:44.469Z,3.78
2022-12-31T19:58:46.207Z,4.95
2022-12-31T20:03:48.999Z,6.10
2022-12-31T20:08:50.491Z,12.30
2022-12-31T20:13:53.574Z,6.32
2022-12-31T20:18:55.302Z,4.97
2022-12-31T20:23:57.017Z,4.22
2022-12-31T20:28:58.516Z,5.32
2022-12-31T20:34:00.051Z,14.05
2022-12-31T20:39:01.526Z,9.57
2022-12-31T20:44:03.846Z,22.02
2022-12-31T20:49:05.763Z,5.10
2022-12-31T20:54:10.119Z,5.90
2022-12-31T20:59:11.750Z,4.93
2022-12-31T21:04:13.510Z,5.30
2022-12-31T21:09:15.175Z,8.43
2022-12-31T21:14:16.732Z,31.65
2022-12-31T21:19:18.148Z,7.25
2022-12-31T21:24:23.882Z,14.43
2022-12-31T21:29:27.856Z,10.23
2022-12-31T21:34:33.051Z,12.00
2022-12-31T21:39:34.526Z,18.42
2022-12-31T21:44:36.039Z,14.43
2022-12-31T21:49:37.497Z,13.00
2022-12-31T21:54:57.446Z,13.20
2022-12-31T22:00:41.083Z,71.10
2022-12-31T22:05:44.904Z,14.77
2022-12-31T22:10:52.075Z,10.38
2022-12-31T22:16:03.873Z,15.45
2022-12-31T22:21:13.802Z,9.57
2022-12-31T22:26:23.386Z,11.35
2022-12-31T22:31:26.878Z,15.23
2022-12-31T22:36:28.417Z,8.50
2022-12-31T22:41:30.054Z,10.07
2022-12-31T22:46:32.453Z,6.82
2022-12-31T22:51:55.936Z,8.15
2022-12-31T22:56:55.663Z,9.57
2022-12-31T23:01:57.154Z,11.68
2022-12-31T23:06:58.795Z,69.97
2022-12-31T23:12:00.655Z,108.00
2022-12-31T23:17:29.703Z,45.35
2022-12-31T23:22:51.761Z,37.55
2022-12-31T23:27:53.246Z,15.15
2022-12-31T23:32:55.097Z,22.60
2022-12-31T23:37:56.622Z,10.98
2022-12-31T23:42:58.119Z,12.13
2022-12-31T23:47:59.686Z,8.63
2022-12-31T23:53:01.185Z,9.85
2022-12-31T23:58:02.656Z,11.30
